createdAt,value
2022-07-28T00:01:32.714Z,101456.66
2022-07-28T00:03:59.658Z,101459.88
2022-07-28T00:06:26.412Z,101457.69
2022-07-28T00:08:53.139Z,101457.13
2022-07-28T00:11:20.011Z,101453.66
2022-07-28T00:13:46.740Z,101452.16
2022-07-28T00:16:13.677Z,101450.03
2022-07-28T00:18:41.237Z,101450.69
2022-07-28T00:21:07.949Z,101447.34
2022-07-28T00:23:39.250Z,101453.13
2022-07-28T00:26:07.574Z,101450.16
2022-07-28T00:28:34.447Z,101448.63
2022-07-28T00:31:05.599Z,101453.88
2022-07-28T00:33:35.131Z,101451.59
2022-07-28T00:36:01.802Z,101435.94
2022-07-28T00:38:28.620Z,101434.13
2022-07-28T00:41:13.925Z,101440.13
2022-07-28T00:43:46.597Z,101435.72
2022-07-28T00:46:15.260Z,101437.63
2022-07-28T00:48:47.840Z,101442.69
2022-07-28T00:51:16.369Z,101437.16
2022-07-28T00:53:43.766Z,101437.94
2022-07-28T00:56:11.173Z,101433.06
2022-07-28T00:58:39.596Z,101429.59
2022-07-28T01:01:11.818Z,101429.66
2022-07-28T01:03:40.819Z,101433.47
2022-07-28T01:06:32.707Z,101428.53
2022-07-28T01:09:08.439Z,101428.63
2022-07-28T01:11:59.189Z,101423.91
2022-07-28T01:14:38.903Z,101421.56
2022-07-28T01:17:25.429Z,101422.50
2022-07-28T01:20:10.343Z,101422.50
2022-07-28T01:22:42.470Z,101424.81
2022-07-28T01:25:24.521Z,101421.13
2022-07-28T01:28:25.173Z,101426.81
2022-07-28T01:30:55.590Z,101418.09
2022-07-28T01:33:32.338Z,101409.38
2022-07-28T01:36:03.125Z,101414.78
2022-07-28T01:38:32.532Z,101415.59
2022-07-28T01:41:01.122Z,101420.56
2022-07-28T01:43:29.150Z,101416.09
2022-07-28T01:45:57.420Z,101412.06
2022-07-28T01:48:25.309Z,101411.78
2022-07-28T01:50:54.873Z,101404.88
2022-07-28T01:53:22.745Z,101407.47
2022-07-28T01:55:50.308Z,101400.81
2022-07-28T01:58:19.355Z,101393.47
2022-07-28T02:00:49.707Z,101399.19
2022-07-28T02:03:18.380Z,101396.94
2022-07-28T02:05:46.180Z,101399.88
2022-07-28T02:08:14.046Z,101390.59
2022-07-28T02:10:42.296Z,101400.19
2022-07-28T02:13:10.569Z,101395.41
2022-07-28T02:15:38.048Z,101386.28
2022-07-28T02:18:06.403Z,101392.75
2022-07-28T02:20:33.873Z,101404.09
2022-07-28T02:23:00.926Z,101399.72
2022-07-28T02:25:30.798Z,101403.47
2022-07-28T02:28:01.865Z,101403.13
2022-07-28T02:30:40.472Z,101395.94
2022-07-28T02:33:18.703Z,101398.16
2022-07-28T02:35:56.786Z,101388.41
2022-07-28T02:38:35.570Z,101396.09
2022-07-28T02:41:24.414Z,101387.38
2022-07-28T02:43:53.103Z,101381.44
2022-07-28T02:46:23.685Z,101380.78
2022-07-28T02:48:54.600Z,101368.94
2022-07-28T02:51:23.878Z,101369.66
2022-07-28T02:53:51.892Z,101373.28
2022-07-28T02:56:19.274Z,101376.00
2022-07-28T02:58:46.886Z,101372.09
2022-07-28T03:01:19.794Z,101365.66
2022-07-28T03:03:46.873Z,101370.25
2022-07-28T03:06:13.673Z,101365.25
2022-07-28T03:08:40.479Z,101362.28
2022-07-28T03:11:12.316Z,101376.47
2022-07-28T03:13:40.099Z,101379.22
2022-07-28T03:16:07.427Z,101373.19
2022-07-28T03:18:34.260Z,101368.09
2022-07-28T03:21:01.373Z,101368.84
2022-07-28T03:23:38.657Z,101372.81
2022-07-28T03:26:27.727Z,101367.91
2022-07-28T03:28:55.645Z,101372.22
2022-07-28T03:31:23.025Z,101373.47
2022-07-28T03:33:49.813Z,101370.03
2022-07-28T03:36:20.058Z,101383.19
2022-07-28T03:38:52.460Z,101376.47
2022-07-28T03:41:20.357Z,101372.94
2022-07-28T03:43:47.905Z,101375.59
2022-07-28T03:46:14.588Z,101382.31
2022-07-28T03:48:41.603Z,101383.56
2022-07-28T03:51:08.322Z,101376.47
2022-07-28T03:53:35.194Z,101378.84
2022-07-28T03:56:03.334Z,101380.81
2022-07-28T03:58:31.007Z,101376.59
2022-07-28T04:00:58.601Z,101380.38
2022-07-28T04:03:36.668Z,101366.31
2022-07-28T04:06:13.644Z,101371.88
2022-07-28T04:08:40.382Z,101373.81
2022-07-28T04:11:07.277Z,101370.66
2022-07-28T04:13:36.644Z,101375.31
2022-07-28T04:16:03.609Z,101359.13
2022-07-28T04:18:31.228Z,101372.94
2022-07-28T04:20:58.440Z,101374.81
2022-07-28T04:23:25.232Z,101381.78
2022-07-28T04:25:51.984Z,101378.25
2022-07-28T04:28:18.819Z,101369.94
2022-07-28T04:30:45.934Z,101376.13
2022-07-28T04:33:13.369Z,101367.28
2022-07-28T04:35:40.476Z,101374.81
2022-07-28T04:38:07.822Z,101374.72
2022-07-28T04:40:34.806Z,101368.78
2022-07-28T04:43:01.931Z,101375.97
2022-07-28T04:45:28.589Z,101375.06
2022-07-28T04:47:55.370Z,101363.28
2022-07-28T04:50:22.322Z,101361.34
2022-07-28T04:52:57.586Z,101363.13
2022-07-28T04:55:24.792Z,101364.28
2022-07-28T04:57:51.738Z,101361.25
2022-07-28T05:00:19.994Z,101366.06
2022-07-28T05:02:50.103Z,101359.59
2022-07-28T05:05:16.971Z,101361.69
2022-07-28T05:07:44.204Z,101358.88
2022-07-28T05:10:11.903Z,101355.75
2022-07-28T05:12:38.889Z,101362.41
2022-07-28T05:15:06.531Z,101357.00
2022-07-28T05:17:33.362Z,101366.41
2022-07-28T05:20:00.213Z,101353.19
2022-07-28T05:22:41.367Z,101365.50
2022-07-28T05:25:18.581Z,101360.91
2022-07-28T05:27:46.491Z,101366.38
2022-07-28T05:30:14.871Z,101367.28
2022-07-28T05:32:41.797Z,101371.16
2022-07-28T05:35:09.071Z,101373.88
2022-07-28T05:37:36.788Z,101384.44
2022-07-28T05:40:08.552Z,101387.19
2022-07-28T05:42:38.044Z,101382.84
2022-07-28T05:45:14.976Z,101387.09
2022-07-28T05:47:46.522Z,101386.63
2022-07-28T05:50:14.806Z,101379.91
2022-07-28T05:52:41.745Z,101376.88
2022-07-28T05:55:09.234Z,101381.16
2022-07-28T05:57:36.908Z,101372.72
2022-07-28T06:00:06.606Z,101382.44
2022-07-28T06:02:39.296Z,101376.72
2022-07-28T06:05:06.715Z,101380.97
2022-07-28T06:07:43.427Z,101378.22
2022-07-28T06:10:15.872Z,101374.88
2022-07-28T06:12:43.947Z,101371.59
2022-07-28T06:15:15.365Z,101372.31
2022-07-28T06:17:42.321Z,101377.91
2022-07-28T06:20:10.382Z,101375.13
2022-07-28T06:22:53.012Z,101380.50
2022-07-28T06:25:22.304Z,101380.13
2022-07-28T06:27:50.398Z,101370.28
2022-07-28T06:30:18.380Z,101379.41
2022-07-28T06:32:46.080Z,101370.44
2022-07-28T06:35:16.442Z,101369.63
2022-07-28T06:37:44.065Z,101369.75
2022-07-28T06:40:14.178Z,101364.91
2022-07-28T06:42:44.942Z,101363.91
2022-07-28T06:45:20.922Z,101361.66
2022-07-28T06:47:49.367Z,101367.13
2022-07-28T06:50:26.340Z,101363.66
2022-07-28T06:52:55.097Z,101356.47
2022-07-28T06:55:22.044Z,101370.03
2022-07-28T06:57:49.263Z,101367.00
2022-07-28T07:00:16.316Z,101372.94
2022-07-28T07:02:43.457Z,101364.94
2022-07-28T07:05:12.203Z,101371.34
2022-07-28T07:07:42.997Z,101364.91
2022-07-28T07:10:11.123Z,101365.06
2022-07-28T07:12:38.101Z,101361.75
2022-07-28T07:15:06.078Z,101353.09
2022-07-28T07:17:32.921Z,101359.53
2022-07-28T07:19:59.654Z,101363.13
2022-07-28T07:22:26.359Z,101363.44
2022-07-28T07:24:56.932Z,101365.78
2022-07-28T07:27:24.975Z,101366.13
2022-07-28T07:29:51.780Z,101353.69
2022-07-28T07:32:18.434Z,101351.91
2022-07-28T07:34:45.256Z,101338.28
2022-07-28T07:37:13.831Z,101347.03
2022-07-28T07:39:41.550Z,101340.22
2022-07-28T07:42:09.085Z,101356.97
2022-07-28T07:44:35.984Z,101349.03
2022-07-28T07:47:03.110Z,101339.53
2022-07-28T07:49:45.399Z,101345.13
2022-07-28T07:52:15.186Z,101333.63
2022-07-28T07:54:42.287Z,101338.34
2022-07-28T07:57:09.810Z,101338.75
2022-07-28T07:59:36.839Z,101337.97
2022-07-28T08:02:04.153Z,101336.81
2022-07-28T08:04:37.183Z,101338.38
2022-07-28T08:07:04.226Z,101325.25
2022-07-28T08:09:31.076Z,101300.38
2022-07-28T08:11:58.287Z,101303.94
2022-07-28T08:14:25.455Z,101312.69
2022-07-28T08:16:52.488Z,101319.06
2022-07-28T08:19:21.575Z,101301.81
2022-07-28T08:21:49.125Z,101309.00
2022-07-28T08:24:17.794Z,101304.84
2022-07-28T08:27:00.106Z,101296.28
2022-07-28T08:29:28.865Z,101290.50
2022-07-28T08:31:58.068Z,101307.88
2022-07-28T08:34:31.511Z,101284.16
2022-07-28T08:37:04.488Z,101300.00
2022-07-28T08:39:33.200Z,101302.69
2022-07-28T08:42:12.507Z,101297.59
2022-07-28T08:44:55.125Z,101299.41
2022-07-28T08:47:40.287Z,101305.47
2022-07-28T08:50:15.944Z,101295.53
2022-07-28T08:52:45.683Z,101288.75
2022-07-28T08:55:19.124Z,101293.09
2022-07-28T09:00:39.011Z,101299.16
2022-07-28T09:03:06.761Z,101292.84
2022-07-28T09:05:34.661Z,101298.69
2022-07-28T09:08:02.264Z,101291.91
2022-07-28T09:10:29.372Z,101296.28
2022-07-28T09:12:58.339Z,101287.41
2022-07-28T09:15:25.412Z,101296.88
2022-07-28T09:17:52.464Z,101285.38
2022-07-28T09:20:20.529Z,101283.72
2022-07-28T09:23:04.420Z,101303.09
2022-07-28T09:25:35.870Z,101307.50
2022-07-28T09:28:11.294Z,101295.22
2022-07-28T09:30:48.403Z,101286.81
2022-07-28T09:33:41.933Z,101286.28
2022-07-28T09:36:15.137Z,101298.97
2022-07-28T09:38:42.236Z,101294.47
2022-07-28T09:41:11.905Z,101298.28
2022-07-28T09:43:40.246Z,101292.72
2022-07-28T09:46:11.707Z,101281.97
2022-07-28T09:48:55.380Z,101292.44
2022-07-28T09:51:30.850Z,101292.06
2022-07-28T09:54:12.614Z,101299.84
2022-07-28T09:56:41.798Z,101291.47
2022-07-28T09:59:09.282Z,101292.84
2022-07-28T10:02:01.829Z,101303.81
2022-07-28T10:04:53.706Z,101308.66
2022-07-28T10:07:20.689Z,101276.19
2022-07-28T10:10:07.884Z,101286.94
2022-07-28T10:12:41.913Z,101280.59
2022-07-28T10:15:35.536Z,101264.69
2022-07-28T10:18:02.607Z,101262.41
2022-07-28T10:20:33.638Z,101256.88
2022-07-28T10:23:09.864Z,101251.72
2022-07-28T10:25:39.916Z,101246.97
2022-07-28T10:28:07.036Z,101262.03
2022-07-28T10:30:38.037Z,101250.16
2022-07-28T10:33:05.963Z,101237.09
2022-07-28T10:35:33.582Z,101249.69
2022-07-28T10:38:21.531Z,101253.69
2022-07-28T10:40:48.600Z,101243.44
2022-07-28T10:43:16.123Z,101246.97
2022-07-28T10:46:04.422Z,101243.41
2022-07-28T10:48:30.869Z,101235.91
2022-07-28T10:50:59.767Z,101238.25
2022-07-28T10:53:53.102Z,101235.41
2022-07-28T10:56:38.768Z,101217.34
2022-07-28T10:59:11.430Z,101229.16
2022-07-28T11:01:49.607Z,101221.66
2022-07-28T11:04:47.988Z,101233.94
2022-07-28T11:07:17.088Z,101217.31
2022-07-28T11:09:45.005Z,101229.56
2022-07-28T11:12:15.305Z,101210.81
2022-07-28T11:14:43.203Z,101226.78
2022-07-28T11:17:11.369Z,101221.13
2022-07-28T11:20:25.007Z,101241.25
2022-07-28T11:22:33.946Z,101205.66
2022-07-28T11:25:18.521Z,101232.56
2022-07-28T11:27:50.014Z,101234.19
2022-07-28T11:30:26.081Z,101235.94
2022-07-28T11:32:55.894Z,101228.38
2022-07-28T11:35:33.473Z,101226.38
2022-07-28T11:38:03.586Z,101229.53
2022-07-28T11:40:31.183Z,101234.75
2022-07-28T11:43:36.169Z,101224.78
2022-07-28T11:46:09.372Z,101235.38
2022-07-28T11:48:42.036Z,101219.97
2022-07-28T11:51:15.153Z,101209.31
2022-07-28T11:53:49.844Z,101206.22
2022-07-28T11:56:23.266Z,101216.56
2022-07-28T11:59:01.180Z,101209.56
2022-07-28T12:01:31.720Z,101208.94
2022-07-28T12:04:00.072Z,101215.25
2022-07-28T12:06:35.838Z,101211.81
2022-07-28T12:09:06.929Z,101209.03
2022-07-28T12:11:41.674Z,101210.53
2022-07-28T12:14:14.184Z,101213.75
2022-07-28T12:16:43.498Z,101208.63
2022-07-28T12:19:11.556Z,101209.31
2022-07-28T12:22:00.362Z,101202.16
2022-07-28T12:24:32.090Z,101207.28
2022-07-28T12:27:14.813Z,101202.66
2022-07-28T12:29:43.844Z,101194.72
2022-07-28T12:32:17.715Z,101179.38
2022-07-28T12:34:46.969Z,101196.81
2022-07-28T12:37:14.435Z,101186.69
2022-07-28T12:39:46.288Z,101190.00
2022-07-28T12:42:16.137Z,101178.56
2022-07-28T12:44:46.999Z,101194.13
2022-07-28T12:47:24.743Z,101174.94
2022-07-28T12:50:13.038Z,101183.59
2022-07-28T12:52:42.084Z,101171.00
2022-07-28T12:55:25.439Z,101178.00
2022-07-28T12:57:52.960Z,101171.41
2022-07-28T13:00:22.974Z,101168.91
2022-07-28T13:02:52.159Z,101158.53
2022-07-28T13:05:29.167Z,101171.13
2022-07-28T13:08:02.153Z,101172.31
2022-07-28T13:10:31.172Z,101168.13
2022-07-28T13:13:03.488Z,101168.19
2022-07-28T13:15:30.786Z,101159.63
2022-07-28T13:17:58.943Z,101159.97
2022-07-28T13:20:26.584Z,101166.94
2022-07-28T13:22:54.141Z,101166.91
2022-07-28T13:25:22.234Z,101164.09
2022-07-28T13:27:55.089Z,101162.56
2022-07-28T13:30:26.240Z,101158.53
2022-07-28T13:32:54.876Z,101150.66
2022-07-28T13:35:23.163Z,101166.94
2022-07-28T13:37:50.472Z,101140.31
2022-07-28T13:40:18.772Z,101157.34
2022-07-28T13:42:53.176Z,101153.13
2022-07-28T13:45:30.354Z,101161.53
2022-07-28T13:47:57.778Z,101145.16
2022-07-28T13:50:25.171Z,101152.81
2022-07-28T13:52:56.190Z,101149.78
2022-07-28T13:55:27.356Z,101145.22
2022-07-28T13:57:55.184Z,101136.97
2022-07-28T14:00:24.280Z,101135.78
2022-07-28T14:02:51.804Z,101130.09
2022-07-28T14:05:19.313Z,101144.38
2022-07-28T14:07:48.738Z,101143.53
2022-07-28T14:10:18.035Z,101129.81
2022-07-28T14:12:46.206Z,101129.06
2022-07-28T14:15:14.259Z,101131.41
2022-07-28T14:17:41.655Z,101136.19
2022-07-28T14:20:16.841Z,101131.50
2022-07-28T14:22:46.850Z,101132.28
2022-07-28T14:25:19.728Z,101124.72
2022-07-28T14:27:49.387Z,101143.88
2022-07-28T14:30:16.847Z,101126.13
2022-07-28T14:32:52.489Z,101138.72
2022-07-28T14:35:20.535Z,101131.13
2022-07-28T14:38:35.483Z,101124.41
2022-07-28T14:40:38.171Z,101116.19
2022-07-28T14:43:09.498Z,101119.63
2022-07-28T14:46:01.456Z,101117.03
2022-07-28T14:48:26.947Z,101112.16
2022-07-28T14:50:55.599Z,101100.06
2022-07-28T14:53:23.852Z,101114.72
2022-07-28T14:56:42.324Z,101102.06
2022-07-28T14:59:13.844Z,101107.09
2022-07-28T15:01:42.190Z,101119.41
2022-07-28T15:04:17.984Z,101107.72
2022-07-28T15:06:46.073Z,101114.59
2022-07-28T15:09:16.888Z,101097.25
2022-07-28T15:11:46.328Z,101110.19
2022-07-28T15:14:25.558Z,101104.66
2022-07-28T15:16:55.000Z,101105.31
2022-07-28T15:19:22.304Z,101109.84
2022-07-28T15:21:53.236Z,101105.44
2022-07-28T15:24:27.550Z,101097.72
2022-07-28T15:26:58.094Z,101121.81
2022-07-28T15:29:25.477Z,101101.75
2022-07-28T15:31:53.038Z,101109.63
2022-07-28T15:34:20.861Z,101109.22
2022-07-28T15:36:49.995Z,101106.63
2022-07-28T15:39:17.120Z,101096.09
2022-07-28T15:41:45.653Z,101100.44
2022-07-28T15:44:14.306Z,101115.94
2022-07-28T15:46:41.851Z,101105.34
2022-07-28T15:49:10.312Z,101106.22
2022-07-28T15:51:38.776Z,101112.00
2022-07-28T15:54:06.415Z,101109.88
2022-07-28T15:56:35.243Z,101099.09
2022-07-28T15:59:03.975Z,101105.00
2022-07-28T16:01:31.385Z,101119.19
2022-07-28T16:03:59.532Z,101117.63
2022-07-28T16:06:47.472Z,101122.13
2022-07-28T16:09:17.762Z,101115.22
2022-07-28T16:11:45.377Z,101099.78
2022-07-28T16:14:12.435Z,101125.69
2022-07-28T16:16:39.612Z,101112.88
2022-07-28T16:19:25.154Z,101103.97
2022-07-28T16:21:55.303Z,101102.94
2022-07-28T16:24:22.182Z,101107.72
2022-07-28T16:26:49.211Z,101107.06
2022-07-28T16:29:16.085Z,101103.38
2022-07-28T16:31:45.345Z,101110.16
2022-07-28T16:34:12.444Z,101100.38
2022-07-28T16:36:42.435Z,101103.25
2022-07-28T16:39:09.622Z,101111.00
2022-07-28T16:41:46.981Z,101111.63
2022-07-28T16:44:16.028Z,101110.59
2022-07-28T16:46:43.363Z,101100.22
2022-07-28T16:49:10.207Z,101097.91
2022-07-28T16:51:37.045Z,101101.94
2022-07-28T16:54:04.299Z,101105.88
2022-07-28T16:56:31.180Z,101099.06
2022-07-28T16:59:03.215Z,101102.53
2022-07-28T17:01:30.283Z,101093.88
2022-07-28T17:03:57.231Z,101108.28
2022-07-28T17:06:24.089Z,101113.13
2022-07-28T17:08:51.410Z,101113.22
2022-07-28T17:11:21.017Z,101112.22
2022-07-28T17:13:51.469Z,101103.53
2022-07-28T17:16:19.271Z,101095.91
2022-07-28T17:18:46.754Z,101113.34
2022-07-28T17:21:16.642Z,101100.38
2022-07-28T17:23:44.202Z,101109.31
2022-07-28T17:28:58.759Z,101104.97
2022-07-28T17:31:25.675Z,101100.22
2022-07-28T17:33:52.595Z,101107.47
2022-07-28T17:36:19.325Z,101107.81
2022-07-28T17:38:46.190Z,101106.19
2022-07-28T17:41:12.965Z,101104.97
2022-07-28T17:43:45.131Z,101109.63
2022-07-28T17:46:12.729Z,101109.84
2022-07-28T17:48:40.104Z,101111.94
2022-07-28T17:51:11.105Z,101111.63
2022-07-28T17:54:02.850Z,101099.56
2022-07-28T17:56:40.148Z,101118.50
2022-07-28T17:59:08.701Z,101106.94
2022-07-28T18:01:38.972Z,101113.06
2022-07-28T18:04:09.392Z,101098.84
2022-07-28T18:06:37.458Z,101115.22
2022-07-28T18:09:08.168Z,101105.75
2022-07-28T18:11:57.769Z,101108.59
2022-07-28T18:14:29.343Z,101107.03
2022-07-28T18:16:56.909Z,101113.13
2022-07-28T18:19:23.883Z,101110.41
2022-07-28T18:21:50.756Z,101094.06
2022-07-28T18:24:18.588Z,101100.06
2022-07-28T18:26:45.997Z,101104.38
2022-07-28T18:29:12.747Z,101100.91
2022-07-28T18:31:45.811Z,101112.34
2022-07-28T18:34:14.270Z,101123.19
2022-07-28T18:37:18.181Z,101109.16
2022-07-28T18:40:17.643Z,101115.78
2022-07-28T18:42:46.324Z,101100.88
2022-07-28T18:45:13.621Z,101118.66
2022-07-28T18:47:45.595Z,101113.03
2022-07-28T18:50:28.002Z,101126.19
2022-07-28T18:52:58.309Z,101123.28
2022-07-28T18:55:25.093Z,101128.03
2022-07-28T18:58:25.536Z,101127.25
2022-07-28T19:01:13.677Z,101129.25
2022-07-28T19:03:48.613Z,101119.06
2022-07-28T19:06:52.296Z,101129.06
2022-07-28T19:09:28.122Z,101144.81
2022-07-28T19:12:06.839Z,101141.25
2022-07-28T19:14:44.214Z,101111.56
2022-07-28T19:17:22.952Z,101117.94
2022-07-28T19:20:10.236Z,101137.34
2022-07-28T19:22:59.735Z,101144.75
2022-07-28T19:25:45.964Z,101137.72
2022-07-28T19:28:25.776Z,101124.31
2022-07-28T19:31:10.571Z,101137.41
2022-07-28T19:33:49.434Z,101140.59
2022-07-28T19:39:25.104Z,101128.31
2022-07-28T19:41:56.043Z,101159.97
2022-07-28T19:44:22.882Z,101157.19
2022-07-28T19:46:49.569Z,101142.19
2022-07-28T19:49:16.970Z,101175.81
2022-07-28T19:51:43.852Z,101161.56
2022-07-28T19:54:12.652Z,101168.66
2022-07-28T19:56:42.169Z,101175.38
2022-07-28T19:59:09.599Z,101178.56
2022-07-28T20:01:36.421Z,101183.69
2022-07-28T20:04:15.959Z,101183.72
2022-07-28T20:06:42.981Z,101191.97
2022-07-28T20:09:09.784Z,101182.53
2022-07-28T20:11:37.061Z,101183.31
2022-07-28T20:14:03.956Z,101183.72
2022-07-28T20:16:31.052Z,101184.88
2022-07-28T20:19:00.263Z,101178.53
2022-07-28T20:21:27.457Z,101179.78
2022-07-28T20:23:55.887Z,101181.72
2022-07-28T20:26:26.037Z,101189.22
2022-07-28T20:28:58.598Z,101188.88
2022-07-28T20:31:25.625Z,101187.66
2022-07-28T20:33:52.912Z,101198.72
2022-07-28T20:36:19.707Z,101201.91
2022-07-28T20:38:46.602Z,101206.25
2022-07-28T20:41:13.563Z,101199.91
2022-07-28T20:43:40.421Z,101203.88
2022-07-28T20:46:07.514Z,101201.50
2022-07-28T20:48:46.919Z,101197.94
2022-07-28T20:51:30.497Z,101198.72
2022-07-28T20:54:17.371Z,101183.69
2022-07-28T20:57:22.167Z,101200.31
2022-07-28T21:00:11.492Z,101215.72
2022-07-28T21:03:00.048Z,101202.28
2022-07-28T21:05:54.449Z,101217.34
2022-07-28T21:08:53.518Z,101217.34
2022-07-28T21:11:38.177Z,101206.63
2022-07-28T21:14:17.410Z,101217.31
2022-07-28T21:17:01.513Z,101217.31
2022-07-28T21:20:05.573Z,101203.47
2022-07-28T21:22:48.358Z,101216.91
2022-07-28T21:25:33.346Z,101196.78
2022-07-28T21:28:24.367Z,101196.78
2022-07-28T21:30:51.174Z,101205.06
2022-07-28T21:33:23.030Z,101213.78
2022-07-28T21:35:50.353Z,101211.78
2022-07-28T21:38:19.976Z,101202.69
2022-07-28T21:40:46.854Z,101208.22
2022-07-28T21:43:13.797Z,101193.63
2022-07-28T21:45:40.547Z,101209.03
2022-07-28T21:48:07.470Z,101209.03
2022-07-28T21:50:36.609Z,101218.91
2022-07-28T21:53:04.525Z,101218.91
2022-07-28T21:55:31.289Z,101214.56
2022-07-28T21:58:03.188Z,101218.50
2022-07-28T22:00:30.006Z,101229.59
2022-07-28T22:03:01.372Z,101218.50
2022-07-28T22:05:29.651Z,101210.16
2022-07-28T22:07:56.371Z,101216.16
2022-07-28T22:10:34.052Z,101216.06
2022-07-28T22:13:00.723Z,101208.63
2022-07-28T22:15:27.475Z,101214.56
2022-07-28T22:17:54.359Z,101218.06
2022-07-28T22:20:21.883Z,101217.25
2022-07-28T22:22:48.885Z,101221.66
2022-07-28T22:25:15.639Z,101223.66
2022-07-28T22:27:42.396Z,101224.06
2022-07-28T22:30:09.495Z,101210.53
2022-07-28T22:32:36.167Z,101208.25
2022-07-28T22:35:03.164Z,101207.03
2022-07-28T22:37:29.877Z,101212.16
2022-07-28T22:39:56.569Z,101214.13
2022-07-28T22:42:23.384Z,101200.28
2022-07-28T22:44:50.166Z,101208.97
2022-07-28T22:47:16.875Z,101206.22
2022-07-28T22:49:43.755Z,101200.19
2022-07-28T22:52:10.471Z,101206.97
2022-07-28T22:57:26.173Z,101201.00
2022-07-28T22:59:54.253Z,101204.59
2022-07-28T23:02:21.152Z,101203.84
2022-07-28T23:04:51.745Z,101206.19
2022-07-28T23:07:18.925Z,101201.44
2022-07-28T23:09:46.379Z,101209.38
2022-07-28T23:12:13.216Z,101205.38
2022-07-28T23:14:40.175Z,101202.19
2022-07-28T23:17:07.087Z,101215.25
2022-07-28T23:19:33.849Z,101214.88
2022-07-28T23:22:00.657Z,101218.44
2022-07-28T23:24:27.428Z,101213.31
2022-07-28T23:26:54.282Z,101213.72
2022-07-28T23:29:22.231Z,101207.00
2022-07-28T23:31:49.734Z,101208.56
2022-07-28T23:34:16.903Z,101208.94
2022-07-28T23:36:44.538Z,101208.16
2022-07-28T23:39:11.360Z,101207.34
2022-07-28T23:41:38.372Z,101204.97
2022-07-28T23:44:05.405Z,101193.16
2022-07-28T23:46:32.563Z,101194.69
2022-07-28T23:48:59.394Z,101201.78
2022-07-28T23:51:46.914Z,101188.78
2022-07-28T23:54:14.431Z,101193.91
2022-07-28T23:56:41.647Z,101195.84
2022-07-28T23:59:13.502Z,101195.81
